sensor_id;sensor_type;location;lat;lon;timestamp;P1;durP1;ratioP1;P2;durP2;ratioP2
59734;SDS011;64362;45.620;4.920;2023-07-24T00:00:29;11.20;;;6.55;;
59734;SDS011;64362;45.620;4.920;2023-07-24T00:02:55;8.57;;;5.72;;
59734;SDS011;64362;45.620;4.920;2023-07-24T00:05:21;9.70;;;5.90;;
59734;SDS011;64362;45.620;4.920;2023-07-24T00:07:47;11.95;;;6.35;;
59734;SDS011;64362;45.620;4.920;2023-07-24T00:10:12;12.80;;;6.20;;
59734;SDS011;64362;45.620;4.920;2023-07-24T00:12:38;8.88;;;5.72;;
59734;SDS011;64362;45.620;4.920;2023-07-24T00:15:03;8.30;;;5.90;;
59734;SDS011;64362;45.620;4.920;2023-07-24T00:17:29;7.82;;;5.78;;
59734;SDS011;64362;45.620;4.920;2023-07-24T00:19:55;8.55;;;5.10;;
59734;SDS011;64362;45.620;4.920;2023-07-24T00:22:20;8.65;;;5.93;;
59734;SDS011;64362;45.620;4.920;2023-07-24T00:24:46;10.85;;;6.22;;
59734;SDS011;64362;45.620;4.920;2023-07-24T00:27:11;8.13;;;5.97;;
59734;SDS011;64362;45.620;4.920;2023-07-24T00:29:38;9.52;;;5.53;;
59734;SDS011;64362;45.620;4.920;2023-07-24T00:32:03;8.90;;;6.53;;
59734;SDS011;64362;45.620;4.920;2023-07-24T00:34:29;9.02;;;5.30;;
59734;SDS011;64362;45.620;4.920;2023-07-24T00:36:55;8.55;;;5.65;;
59734;SDS011;64362;45.620;4.920;2023-07-24T00:39:22;8.68;;;5.80;;
59734;SDS011;64362;45.620;4.920;2023-07-24T00:41:48;9.57;;;5.95;;
59734;SDS011;64362;45.620;4.920;2023-07-24T00:44:13;9.57;;;5.90;;
59734;SDS011;64362;45.620;4.920;2023-07-24T00:46:39;7.85;;;5.32;;
59734;SDS011;64362;45.620;4.920;2023-07-24T00:49:04;9.50;;;6.00;;
59734;SDS011;64362;45.620;4.920;2023-07-24T00:51:31;8.52;;;5.78;;
59734;SDS011;64362;45.620;4.920;2023-07-24T00:53:57;10.43;;;5.75;;
59734;SDS011;64362;45.620;4.920;2023-07-24T00:56:25;8.27;;;5.80;;
59734;SDS011;64362;45.620;4.920;2023-07-24T00:58:54;8.88;;;5.60;;
59734;SDS011;64362;45.620;4.920;2023-07-24T01:01:23;8.98;;;6.18;;
59734;SDS011;64362;45.620;4.920;2023-07-24T01:03:49;9.27;;;5.57;;
59734;SDS011;64362;45.620;4.920;2023-07-24T01:06:15;9.20;;;5.20;;
59734;SDS011;64362;45.620;4.920;2023-07-24T01:08:40;11.50;;;5.63;;
59734;SDS011;64362;45.620;4.920;2023-07-24T01:11:15;8.75;;;5.68;;
59734;SDS011;64362;45.620;4.920;2023-07-24T01:13:56;9.48;;;5.75;;
59734;SDS011;64362;45.620;4.920;2023-07-24T01:16:26;9.85;;;6.18;;
59734;SDS011;64362;45.620;4.920;2023-07-24T01:18:54;9.50;;;5.63;;
59734;SDS011;64362;45.620;4.920;2023-07-24T01:21:26;9.38;;;6.03;;
59734;SDS011;64362;45.620;4.920;2023-07-24T01:26:32;9.23;;;5.93;;
59734;SDS011;64362;45.620;4.920;2023-07-24T01:28:57;9.35;;;6.00;;
59734;SDS011;64362;45.620;4.920;2023-07-24T01:31:23;9.27;;;5.35;;
59734;SDS011;64362;45.620;4.920;2023-07-24T01:33:48;10.35;;;6.10;;
59734;SDS011;64362;45.620;4.920;2023-07-24T01:36:16;9.32;;;5.63;;
59734;SDS011;64362;45.620;4.920;2023-07-24T01:38:43;8.65;;;4.95;;
59734;SDS011;64362;45.620;4.920;2023-07-24T01:41:09;8.15;;;5.63;;
59734;SDS011;64362;45.620;4.920;2023-07-24T01:43:36;11.07;;;6.28;;
59734;SDS011;64362;45.620;4.920;2023-07-24T01:46:02;12.15;;;6.65;;
59734;SDS011;64362;45.620;4.920;2023-07-24T01:48:27;9.73;;;6.10;;
59734;SDS011;64362;45.620;4.920;2023-07-24T01:50:53;10.38;;;6.03;;
59734;SDS011;64362;45.620;4.920;2023-07-24T01:53:18;9.50;;;5.47;;
59734;SDS011;64362;45.620;4.920;2023-07-24T01:55:44;9.70;;;6.10;;
59734;SDS011;64362;45.620;4.920;2023-07-24T01:58:09;10.55;;;5.78;;
59734;SDS011;64362;45.620;4.920;2023-07-24T02:00:35;10.00;;;6.13;;
59734;SDS011;64362;45.620;4.920;2023-07-24T02:03:00;10.55;;;6.30;;
59734;SDS011;64362;45.620;4.920;2023-07-24T02:05:26;11.25;;;6.05;;
59734;SDS011;64362;45.620;4.920;2023-07-24T02:07:51;13.82;;;6.63;;
59734;SDS011;64362;45.620;4.920;2023-07-24T02:10:17;10.00;;;6.00;;
59734;SDS011;64362;45.620;4.920;2023-07-24T02:12:42;8.98;;;5.70;;
59734;SDS011;64362;45.620;4.920;2023-07-24T02:15:08;13.55;;;5.72;;
59734;SDS011;64362;45.620;4.920;2023-07-24T02:17:34;11.18;;;6.43;;
59734;SDS011;64362;45.620;4.920;2023-07-24T02:20:00;9.27;;;6.32;;
59734;SDS011;64362;45.620;4.920;2023-07-24T02:22:26;10.48;;;6.13;;
59734;SDS011;64362;45.620;4.920;2023-07-24T02:24:52;11.15;;;6.30;;
59734;SDS011;64362;45.620;4.920;2023-07-24T02:27:24;10.07;;;6.22;;
59734;SDS011;64362;45.620;4.920;2023-07-24T02:29:56;10.63;;;5.85;;
59734;SDS011;64362;45.620;4.920;2023-07-24T02:32:22;11.60;;;6.38;;
59734;SDS011;64362;45.620;4.920;2023-07-24T02:34:52;10.80;;;6.57;;
59734;SDS011;64362;45.620;4.920;2023-07-24T02:37:18;10.18;;;6.47;;
59734;SDS011;64362;45.620;4.920;2023-07-24T02:39:44;9.93;;;5.78;;
59734;SDS011;64362;45.620;4.920;2023-07-24T02:42:10;9.50;;;6.25;;
59734;SDS011;64362;45.620;4.920;2023-07-24T02:44:35;11.35;;;5.93;;
59734;SDS011;64362;45.620;4.920;2023-07-24T02:47:01;8.90;;;5.68;;
59734;SDS011;64362;45.620;4.920;2023-07-24T02:49:27;10.68;;;6.03;;
59734;SDS011;64362;45.620;4.920;2023-07-24T02:51:52;10.23;;;6.13;;
59734;SDS011;64362;45.620;4.920;2023-07-24T02:54:18;8.40;;;6.07;;
59734;SDS011;64362;45.620;4.920;2023-07-24T02:56:44;9.52;;;6.28;;
59734;SDS011;64362;45.620;4.920;2023-07-24T02:59:09;9.73;;;5.68;;
59734;SDS011;64362;45.620;4.920;2023-07-24T03:01:36;8.52;;;5.65;;
59734;SDS011;64362;45.620;4.920;2023-07-24T03:04:02;10.57;;;5.85;;
59734;SDS011;64362;45.620;4.920;2023-07-24T03:06:29;9.57;;;5.90;;
59734;SDS011;64362;45.620;4.920;2023-07-24T03:08:55;8.50;;;5.85;;
59734;SDS011;64362;45.620;4.920;2023-07-24T03:11:20;11.50;;;6.35;;
59734;SDS011;64362;45.620;4.920;2023-07-24T03:13:46;10.23;;;5.70;;
59734;SDS011;64362;45.620;4.920;2023-07-24T03:16:11;9.50;;;6.30;;
59734;SDS011;64362;45.620;4.920;2023-07-24T03:18:37;12.60;;;6.95;;
59734;SDS011;64362;45.620;4.920;2023-07-24T03:21:02;12.32;;;6.32;;
59734;SDS011;64362;45.620;4.920;2023-07-24T03:23:28;9.48;;;6.47;;
59734;SDS011;64362;45.620;4.920;2023-07-24T03:25:54;10.25;;;6.00;;
59734;SDS011;64362;45.620;4.920;2023-07-24T03:28:20;11.20;;;6.15;;
59734;SDS011;64362;45.620;4.920;2023-07-24T03:30:45;10.50;;;5.78;;
59734;SDS011;64362;45.620;4.920;2023-07-24T03:33:11;9.90;;;6.05;;
59734;SDS011;64362;45.620;4.920;2023-07-24T03:35:37;9.02;;;5.70;;
59734;SDS011;64362;45.620;4.920;2023-07-24T03:38:04;8.52;;;5.63;;
59734;SDS011;64362;45.620;4.920;2023-07-24T03:40:31;10.23;;;6.20;;
59734;SDS011;64362;45.620;4.920;2023-07-24T03:42:56;11.48;;;5.88;;
59734;SDS011;64362;45.620;4.920;2023-07-24T03:45:22;9.23;;;5.95;;
59734;SDS011;64362;45.620;4.920;2023-07-24T03:47:47;10.45;;;5.72;;
59734;SDS011;64362;45.620;4.920;2023-07-24T03:50:13;10.68;;;5.80;;
59734;SDS011;64362;45.620;4.920;2023-07-24T03:52:38;9.82;;;5.70;;
59734;SDS011;64362;45.620;4.920;2023-07-24T03:55:04;11.23;;;5.78;;
59734;SDS011;64362;45.620;4.920;2023-07-24T04:01:00;10.80;;;6.07;;
59734;SDS011;64362;45.620;4.920;2023-07-24T04:03:25;8.52;;;5.00;;
59734;SDS011;64362;45.620;4.920;2023-07-24T04:05:51;9.70;;;5.82;;
59734;SDS011;64362;45.620;4.920;2023-07-24T04:08:16;11.18;;;6.00;;
59734;SDS011;64362;45.620;4.920;2023-07-24T04:10:42;8.82;;;5.32;;
59734;SDS011;64362;45.620;4.920;2023-07-24T04:13:07;10.55;;;5.82;;
59734;SDS011;64362;45.620;4.920;2023-07-24T04:15:33;11.80;;;6.03;;
59734;SDS011;64362;45.620;4.920;2023-07-24T04:17:58;9.73;;;5.93;;
59734;SDS011;64362;45.620;4.920;2023-07-24T04:20:23;10.02;;;5.90;;
59734;SDS011;64362;45.620;4.920;2023-07-24T04:22:49;9.18;;;5.85;;
59734;SDS011;64362;45.620;4.920;2023-07-24T04:25:14;11.57;;;6.15;;
59734;SDS011;64362;45.620;4.920;2023-07-24T04:27:40;8.88;;;5.95;;
59734;SDS011;64362;45.620;4.920;2023-07-24T04:30:06;9.38;;;6.18;;
59734;SDS011;64362;45.620;4.920;2023-07-24T04:32:32;9.52;;;6.00;;
59734;SDS011;64362;45.620;4.920;2023-07-24T04:34:57;12.23;;;6.35;;
59734;SDS011;64362;45.620;4.920;2023-07-24T04:37:23;9.70;;;5.75;;
59734;SDS011;64362;45.620;4.920;2023-07-24T04:39:49;11.82;;;6.50;;
59734;SDS011;64362;45.620;4.920;2023-07-24T04:42:14;10.13;;;5.72;;
59734;SDS011;64362;45.620;4.920;2023-07-24T04:44:40;10.30;;;5.68;;
59734;SDS011;64362;45.620;4.920;2023-07-24T04:47:05;9.35;;;6.60;;
59734;SDS011;64362;45.620;4.920;2023-07-24T04:49:31;10.55;;;6.50;;
59734;SDS011;64362;45.620;4.920;2023-07-24T04:51:58;11.75;;;7.00;;
59734;SDS011;64362;45.620;4.920;2023-07-24T04:54:24;12.50;;;6.53;;
59734;SDS011;64362;45.620;4.920;2023-07-24T04:56:49;9.63;;;6.13;;
59734;SDS011;64362;45.620;4.920;2023-07-24T04:59:15;11.30;;;6.18;;
59734;SDS011;64362;45.620;4.920;2023-07-24T05:01:40;10.55;;;6.85;;
59734;SDS011;64362;45.620;4.920;2023-07-24T05:04:06;10.35;;;6.72;;
59734;SDS011;64362;45.620;4.920;2023-07-24T05:06:31;11.38;;;6.28;;
59734;SDS011;64362;45.620;4.920;2023-07-24T05:08:57;13.32;;;6.57;;
59734;SDS011;64362;45.620;4.920;2023-07-24T05:11:22;10.38;;;6.68;;
59734;SDS011;64362;45.620;4.920;2023-07-24T05:13:48;10.07;;;6.78;;
59734;SDS011;64362;45.620;4.920;2023-07-24T05:16:13;12.10;;;7.22;;
59734;SDS011;64362;45.620;4.920;2023-07-24T05:18:38;10.63;;;7.00;;
59734;SDS011;64362;45.620;4.920;2023-07-24T05:21:04;9.70;;;7.10;;
59734;SDS011;64362;45.620;4.920;2023-07-24T05:23:29;10.68;;;7.15;;
59734;SDS011;64362;45.620;4.920;2023-07-24T05:25:58;9.80;;;6.97;;
59734;SDS011;64362;45.620;4.920;2023-07-24T05:28:28;10.90;;;7.00;;
59734;SDS011;64362;45.620;4.920;2023-07-24T05:30:54;9.35;;;6.10;;
59734;SDS011;64362;45.620;4.920;2023-07-24T05:33:20;13.65;;;7.68;;
59734;SDS011;64362;45.620;4.920;2023-07-24T05:35:45;12.00;;;7.18;;
59734;SDS011;64362;45.620;4.920;2023-07-24T05:38:11;12.05;;;8.07;;
59734;SDS011;64362;45.620;4.920;2023-07-24T05:40:36;11.68;;;7.22;;
59734;SDS011;64362;45.620;4.920;2023-07-24T05:43:02;11.48;;;7.63;;
59734;SDS011;64362;45.620;4.920;2023-07-24T05:45:29;10.07;;;7.40;;
59734;SDS011;64362;45.620;4.920;2023-07-24T05:47:54;9.23;;;6.68;;
59734;SDS011;64362;45.620;4.920;2023-07-24T05:50:20;9.80;;;7.55;;
59734;SDS011;64362;45.620;4.920;2023-07-24T05:52:45;9.73;;;6.85;;
59734;SDS011;64362;45.620;4.920;2023-07-24T05:55:11;10.25;;;7.68;;
59734;SDS011;64362;45.620;4.920;2023-07-24T05:57:36;9.85;;;7.07;;
59734;SDS011;64362;45.620;4.920;2023-07-24T06:00:05;10.15;;;7.25;;
59734;SDS011;64362;45.620;4.920;2023-07-24T06:02:36;10.25;;;7.40;;
59734;SDS011;64362;45.620;4.920;2023-07-24T06:05:02;11.25;;;7.38;;
59734;SDS011;64362;45.620;4.920;2023-07-24T06:07:27;12.15;;;7.32;;
59734;SDS011;64362;45.620;4.920;2023-07-24T06:09:53;9.88;;;7.03;;
59734;SDS011;64362;45.620;4.920;2023-07-24T06:12:18;10.90;;;7.43;;
59734;SDS011;64362;45.620;4.920;2023-07-24T06:14:44;12.18;;;6.50;;
59734;SDS011;64362;45.620;4.920;2023-07-24T06:17:10;10.30;;;6.18;;
59734;SDS011;64362;45.620;4.920;2023-07-24T06:19:35;10.20;;;6.80;;
59734;SDS011;64362;45.620;4.920;2023-07-24T06:22:01;9.60;;;6.68;;
59734;SDS011;64362;45.620;4.920;2023-07-24T06:24:26;10.25;;;6.53;;
59734;SDS011;64362;45.620;4.920;2023-07-24T06:26:52;9.80;;;6.82;;
59734;SDS011;64362;45.620;4.920;2023-07-24T06:29:17;9.40;;;6.57;;
59734;SDS011;64362;45.620;4.920;2023-07-24T06:31:43;10.55;;;7.38;;
59734;SDS011;64362;45.620;4.920;2023-07-24T06:34:08;10.55;;;6.32;;
59734;SDS011;64362;45.620;4.920;2023-07-24T06:36:34;10.77;;;6.95;;
59734;SDS011;64362;45.620;4.920;2023-07-24T06:38:59;9.25;;;6.18;;
59734;SDS011;64362;45.620;4.920;2023-07-24T06:41:24;8.95;;;5.47;;
59734;SDS011;64362;45.620;4.920;2023-07-24T06:43:50;8.27;;;6.65;;
59734;SDS011;64362;45.620;4.920;2023-07-24T06:46:16;8.98;;;6.68;;
59734;SDS011;64362;45.620;4.920;2023-07-24T06:48:42;8.20;;;6.28;;
59734;SDS011;64362;45.620;4.920;2023-07-24T06:51:07;8.77;;;6.50;;
59734;SDS011;64362;45.620;4.920;2023-07-24T06:53:33;10.45;;;6.70;;
59734;SDS011;64362;45.620;4.920;2023-07-24T06:55:58;9.93;;;6.65;;
59734;SDS011;64362;45.620;4.920;2023-07-24T06:58:24;8.18;;;6.70;;
59734;SDS011;64362;45.620;4.920;2023-07-24T07:00:49;9.48;;;6.50;;
59734;SDS011;64362;45.620;4.920;2023-07-24T07:03:15;11.30;;;6.80;;
59734;SDS011;64362;45.620;4.920;2023-07-24T07:05:40;10.27;;;6.80;;
59734;SDS011;64362;45.620;4.920;2023-07-24T07:08:05;10.02;;;6.93;;
59734;SDS011;64362;45.620;4.920;2023-07-24T07:10:31;9.82;;;6.57;;
59734;SDS011;64362;45.620;4.920;2023-07-24T07:12:57;7.85;;;6.45;;
59734;SDS011;64362;45.620;4.920;2023-07-24T07:15:22;9.40;;;6.28;;
59734;SDS011;64362;45.620;4.920;2023-07-24T07:17:48;9.32;;;6.70;;
59734;SDS011;64362;45.620;4.920;2023-07-24T07:20:13;9.55;;;6.15;;
59734;SDS011;64362;45.620;4.920;2023-07-24T07:22:39;9.00;;;7.10;;
59734;SDS011;64362;45.620;4.920;2023-07-24T07:25:04;9.80;;;6.60;;
59734;SDS011;64362;45.620;4.920;2023-07-24T07:27:30;8.52;;;7.00;;
59734;SDS011;64362;45.620;4.920;2023-07-24T07:29:55;10.88;;;6.95;;
59734;SDS011;64362;45.620;4.920;2023-07-24T07:32:21;9.68;;;6.45;;
59734;SDS011;64362;45.620;4.920;2023-07-24T07:34:46;8.60;;;6.50;;
59734;SDS011;64362;45.620;4.920;2023-07-24T07:37:12;10.52;;;6.57;;
59734;SDS011;64362;45.620;4.920;2023-07-24T07:39:37;9.57;;;6.85;;
59734;SDS011;64362;45.620;4.920;2023-07-24T07:42:03;8.63;;;6.28;;
59734;SDS011;64362;45.620;4.920;2023-07-24T07:44:31;8.75;;;6.05;;
59734;SDS011;64362;45.620;4.920;2023-07-24T07:46:57;8.90;;;6.53;;
59734;SDS011;64362;45.620;4.920;2023-07-24T07:49:22;8.75;;;6.90;;
59734;SDS011;64362;45.620;4.920;2023-07-24T07:51:48;8.75;;;6.47;;
59734;SDS011;64362;45.620;4.920;2023-07-24T07:54:13;8.52;;;6.47;;
59734;SDS011;64362;45.620;4.920;2023-07-24T07:56:39;8.38;;;6.82;;
59734;SDS011;64362;45.620;4.920;2023-07-24T07:59:04;9.15;;;6.78;;
59734;SDS011;64362;45.620;4.920;2023-07-24T08:01:29;9.90;;;6.68;;
59734;SDS011;64362;45.620;4.920;2023-07-24T08:03:55;7.75;;;6.38;;
59734;SDS011;64362;45.620;4.920;2023-07-24T08:06:21;8.95;;;6.78;;
59734;SDS011;64362;45.620;4.920;2023-07-24T08:08:47;8.80;;;6.78;;
59734;SDS011;64362;45.620;4.920;2023-07-24T08:11:12;9.70;;;6.57;;
59734;SDS011;64362;45.620;4.920;2023-07-24T08:13:37;9.52;;;5.97;;
59734;SDS011;64362;45.620;4.920;2023-07-24T08:16:03;9.88;;;6.18;;
59734;SDS011;64362;45.620;4.920;2023-07-24T08:18:29;8.75;;;6.88;;
59734;SDS011;64362;45.620;4.920;2023-07-24T08:20:55;7.57;;;6.40;;
59734;SDS011;64362;45.620;4.920;2023-07-24T08:23:21;10.32;;;6.30;;
59734;SDS011;64362;45.620;4.920;2023-07-24T08:25:53;9.80;;;6.70;;
59734;SDS011;64362;45.620;4.920;2023-07-24T08:30:55;9.18;;;6.20;;
59734;SDS011;64362;45.620;4.920;2023-07-24T08:33:21;10.13;;;6.90;;
59734;SDS011;64362;45.620;4.920;2023-07-24T08:35:47;9.50;;;6.72;;
59734;SDS011;64362;45.620;4.920;2023-07-24T08:38:12;8.00;;;6.20;;
59734;SDS011;64362;45.620;4.920;2023-07-24T08:40:37;9.75;;;7.10;;
59734;SDS011;64362;45.620;4.920;2023-07-24T08:43:04;9.65;;;6.95;;
59734;SDS011;64362;45.620;4.920;2023-07-24T08:45:29;8.40;;;6.40;;
59734;SDS011;64362;45.620;4.920;2023-07-24T08:47:55;7.90;;;6.15;;
59734;SDS011;64362;45.620;4.920;2023-07-24T08:50:21;8.55;;;6.40;;
59734;SDS011;64362;45.620;4.920;2023-07-24T08:52:47;9.35;;;6.47;;
59734;SDS011;64362;45.620;4.920;2023-07-24T08:55:13;9.20;;;6.15;;
59734;SDS011;64362;45.620;4.920;2023-07-24T08:57:38;8.43;;;6.07;;
59734;SDS011;64362;45.620;4.920;2023-07-24T09:00:04;8.55;;;6.60;;
59734;SDS011;64362;45.620;4.920;2023-07-24T09:02:31;10.02;;;7.07;;
59734;SDS011;64362;45.620;4.920;2023-07-24T09:04:57;7.47;;;6.43;;
59734;SDS011;64362;45.620;4.920;2023-07-24T09:07:23;8.50;;;6.75;;
59734;SDS011;64362;45.620;4.920;2023-07-24T09:09:48;10.63;;;7.03;;
59734;SDS011;64362;45.620;4.920;2023-07-24T09:12:15;8.05;;;6.60;;
59734;SDS011;64362;45.620;4.920;2023-07-24T09:14:41;7.40;;;6.18;;
59734;SDS011;64362;45.620;4.920;2023-07-24T09:17:07;7.65;;;6.43;;
59734;SDS011;64362;45.620;4.920;2023-07-24T09:19:34;10.80;;;7.15;;
59734;SDS011;64362;45.620;4.920;2023-07-24T09:24:50;8.82;;;6.47;;
59734;SDS011;64362;45.620;4.920;2023-07-24T09:27:17;7.78;;;6.32;;
59734;SDS011;64362;45.620;4.920;2023-07-24T09:29:43;10.57;;;6.68;;
59734;SDS011;64362;45.620;4.920;2023-07-24T09:35:04;10.43;;;7.10;;
59734;SDS011;64362;45.620;4.920;2023-07-24T09:37:30;9.75;;;6.82;;
59734;SDS011;64362;45.620;4.920;2023-07-24T09:39:58;8.68;;;6.88;;
59734;SDS011;64362;45.620;4.920;2023-07-24T09:42:31;9.73;;;7.72;;
59734;SDS011;64362;45.620;4.920;2023-07-24T09:44:57;8.48;;;6.78;;
59734;SDS011;64362;45.620;4.920;2023-07-24T09:47:22;10.73;;;7.85;;
59734;SDS011;64362;45.620;4.920;2023-07-24T09:49:48;9.50;;;7.03;;
59734;SDS011;64362;45.620;4.920;2023-07-24T09:52:13;9.93;;;7.32;;
59734;SDS011;64362;45.620;4.920;2023-07-24T09:54:45;10.57;;;6.63;;
59734;SDS011;64362;45.620;4.920;2023-07-24T09:57:17;9.00;;;6.88;;
59734;SDS011;64362;45.620;4.920;2023-07-24T09:59:43;8.90;;;7.25;;
59734;SDS011;64362;45.620;4.920;2023-07-24T10:02:09;9.90;;;7.03;;
59734;SDS011;64362;45.620;4.920;2023-07-24T10:04:36;7.25;;;6.38;;
59734;SDS011;64362;45.620;4.920;2023-07-24T10:07:03;8.95;;;6.38;;
59734;SDS011;64362;45.620;4.920;2023-07-24T10:09:29;9.98;;;6.57;;
59734;SDS011;64362;45.620;4.920;2023-07-24T10:11:55;10.32;;;6.45;;
59734;SDS011;64362;45.620;4.920;2023-07-24T10:14:21;8.73;;;6.70;;
59734;SDS011;64362;45.620;4.920;2023-07-24T10:16:47;9.00;;;7.13;;
59734;SDS011;64362;45.620;4.920;2023-07-24T10:19:14;9.13;;;6.65;;
59734;SDS011;64362;45.620;4.920;2023-07-24T10:21:44;8.50;;;7.00;;
59734;SDS011;64362;45.620;4.920;2023-07-24T10:24:11;7.10;;;6.28;;
59734;SDS011;64362;45.620;4.920;2023-07-24T10:26:37;10.05;;;7.20;;
59734;SDS011;64362;45.620;4.920;2023-07-24T10:29:02;10.80;;;7.28;;
59734;SDS011;64362;45.620;4.920;2023-07-24T10:31:28;9.43;;;7.05;;
59734;SDS011;64362;45.620;4.920;2023-07-24T10:33:53;8.88;;;6.63;;
59734;SDS011;64362;45.620;4.920;2023-07-24T10:36:20;8.68;;;6.70;;
59734;SDS011;64362;45.620;4.920;2023-07-24T10:38:52;11.27;;;7.40;;
59734;SDS011;64362;45.620;4.920;2023-07-24T10:41:19;9.10;;;6.70;;
59734;SDS011;64362;45.620;4.920;2023-07-24T10:43:45;8.55;;;6.72;;
59734;SDS011;64362;45.620;4.920;2023-07-24T10:46:11;8.98;;;6.68;;
59734;SDS011;64362;45.620;4.920;2023-07-24T10:48:37;9.27;;;7.22;;
59734;SDS011;64362;45.620;4.920;2023-07-24T10:51:09;10.07;;;7.18;;
59734;SDS011;64362;45.620;4.920;2023-07-24T10:53:35;8.90;;;6.40;;
59734;SDS011;64362;45.620;4.920;2023-07-24T10:56:02;9.07;;;6.75;;
59734;SDS011;64362;45.620;4.920;2023-07-24T10:58:29;8.88;;;6.35;;
59734;SDS011;64362;45.620;4.920;2023-07-24T11:00:55;9.68;;;6.80;;
59734;SDS011;64362;45.620;4.920;2023-07-24T11:03:21;9.73;;;7.47;;
59734;SDS011;64362;45.620;4.920;2023-07-24T11:05:47;8.85;;;6.50;;
59734;SDS011;64362;45.620;4.920;2023-07-24T11:08:20;10.43;;;7.30;;
59734;SDS011;64362;45.620;4.920;2023-07-24T11:10:49;12.18;;;7.20;;
59734;SDS011;64362;45.620;4.920;2023-07-24T11:13:16;11.50;;;7.80;;
59734;SDS011;64362;45.620;4.920;2023-07-24T11:15:42;11.07;;;7.65;;
59734;SDS011;64362;45.620;4.920;2023-07-24T11:18:08;10.75;;;7.63;;
59734;SDS011;64362;45.620;4.920;2023-07-24T11:20:50;9.20;;;7.60;;
59734;SDS011;64362;45.620;4.920;2023-07-24T11:23:19;12.13;;;7.22;;
59734;SDS011;64362;45.620;4.920;2023-07-24T11:25:45;11.70;;;7.32;;
59734;SDS011;64362;45.620;4.920;2023-07-24T11:28:11;9.48;;;7.75;;
59734;SDS011;64362;45.620;4.920;2023-07-24T11:30:38;9.45;;;7.20;;
59734;SDS011;64362;45.620;4.920;2023-07-24T11:33:08;9.77;;;7.53;;
59734;SDS011;64362;45.620;4.920;2023-07-24T11:35:34;11.18;;;7.53;;
59734;SDS011;64362;45.620;4.920;2023-07-24T11:38:01;10.40;;;7.93;;
59734;SDS011;64362;45.620;4.920;2023-07-24T11:40:34;9.88;;;7.40;;
59734;SDS011;64362;45.620;4.920;2023-07-24T11:43:01;10.10;;;7.35;;
59734;SDS011;64362;45.620;4.920;2023-07-24T11:45:27;10.23;;;6.85;;
59734;SDS011;64362;45.620;4.920;2023-07-24T11:47:53;9.70;;;7.07;;
59734;SDS011;64362;45.620;4.920;2023-07-24T11:50:19;9.52;;;7.03;;
59734;SDS011;64362;45.620;4.920;2023-07-24T11:52:46;12.23;;;8.05;;
59734;SDS011;64362;45.620;4.920;2023-07-24T11:55:14;8.77;;;7.07;;
59734;SDS011;64362;45.620;4.920;2023-07-24T11:57:40;12.30;;;7.97;;
59734;SDS011;64362;45.620;4.920;2023-07-24T12:00:16;9.13;;;7.03;;
59734;SDS011;64362;45.620;4.920;2023-07-24T12:02:44;9.75;;;7.53;;
59734;SDS011;64362;45.620;4.920;2023-07-24T12:05:10;9.45;;;7.13;;
59734;SDS011;64362;45.620;4.920;2023-07-24T12:07:36;13.20;;;7.78;;
59734;SDS011;64362;45.620;4.920;2023-07-24T12:10:02;9.93;;;7.32;;
59734;SDS011;64362;45.620;4.920;2023-07-24T12:12:45;11.13;;;7.28;;
59734;SDS011;64362;45.620;4.920;2023-07-24T12:15:11;9.82;;;7.45;;
59734;SDS011;64362;45.620;4.920;2023-07-24T12:17:37;11.45;;;7.85;;
59734;SDS011;64362;45.620;4.920;2023-07-24T12:20:03;13.20;;;7.80;;
59734;SDS011;64362;45.620;4.920;2023-07-24T12:22:31;12.15;;;8.82;;
59734;SDS011;64362;45.620;4.920;2023-07-24T12:24:57;13.27;;;8.82;;
59734;SDS011;64362;45.620;4.920;2023-07-24T12:27:23;8.90;;;7.28;;
59734;SDS011;64362;45.620;4.920;2023-07-24T12:29:50;9.25;;;7.45;;
59734;SDS011;64362;45.620;4.920;2023-07-24T12:32:16;9.30;;;6.90;;
59734;SDS011;64362;45.620;4.920;2023-07-24T12:34:41;11.55;;;7.50;;
59734;SDS011;64362;45.620;4.920;2023-07-24T12:37:07;9.65;;;7.47;;
59734;SDS011;64362;45.620;4.920;2023-07-24T12:39:32;9.98;;;6.95;;
59734;SDS011;64362;45.620;4.920;2023-07-24T12:41:58;8.90;;;5.63;;
59734;SDS011;64362;45.620;4.920;2023-07-24T12:44:23;9.70;;;5.50;;
59734;SDS011;64362;45.620;4.920;2023-07-24T12:46:51;7.63;;;5.97;;
59734;SDS011;64362;45.620;4.920;2023-07-24T12:49:16;8.15;;;5.47;;
59734;SDS011;64362;45.620;4.920;2023-07-24T12:51:42;8.18;;;5.22;;
59734;SDS011;64362;45.620;4.920;2023-07-24T12:54:07;6.03;;;4.90;;
59734;SDS011;64362;45.620;4.920;2023-07-24T12:56:33;7.65;;;5.07;;
59734;SDS011;64362;45.620;4.920;2023-07-24T12:58:58;8.23;;;5.53;;
59734;SDS011;64362;45.620;4.920;2023-07-24T13:01:24;9.40;;;5.32;;
59734;SDS011;64362;45.620;4.920;2023-07-24T13:03:50;7.93;;;4.90;;
59734;SDS011;64362;45.620;4.920;2023-07-24T13:06:15;7.05;;;4.95;;
59734;SDS011;64362;45.620;4.920;2023-07-24T13:08:41;7.57;;;5.47;;
59734;SDS011;64362;45.620;4.920;2023-07-24T13:11:06;8.52;;;5.47;;
59734;SDS011;64362;45.620;4.920;2023-07-24T13:13:31;8.88;;;4.93;;
59734;SDS011;64362;45.620;4.920;2023-07-24T13:15:57;7.70;;;5.30;;
59734;SDS011;64362;45.620;4.920;2023-07-24T13:18:22;8.02;;;5.15;;
59734;SDS011;64362;45.620;4.920;2023-07-24T13:20:48;8.40;;;5.10;;
59734;SDS011;64362;45.620;4.920;2023-07-24T13:23:13;8.48;;;5.00;;
59734;SDS011;64362;45.620;4.920;2023-07-24T13:25:39;8.35;;;6.07;;
59734;SDS011;64362;45.620;4.920;2023-07-24T13:28:06;8.43;;;5.30;;
59734;SDS011;64362;45.620;4.920;2023-07-24T13:30:31;7.65;;;5.68;;
59734;SDS011;64362;45.620;4.920;2023-07-24T13:32:56;9.15;;;5.38;;
59734;SDS011;64362;45.620;4.920;2023-07-24T13:35:22;8.27;;;5.82;;
59734;SDS011;64362;45.620;4.920;2023-07-24T13:37:47;10.45;;;5.57;;
59734;SDS011;64362;45.620;4.920;2023-07-24T13:40:13;9.13;;;6.00;;
59734;SDS011;64362;45.620;4.920;2023-07-24T13:42:38;10.93;;;6.75;;
59734;SDS011;64362;45.620;4.920;2023-07-24T13:45:04;7.47;;;6.00;;
59734;SDS011;64362;45.620;4.920;2023-07-24T13:47:30;10.05;;;6.20;;
59734;SDS011;64362;45.620;4.920;2023-07-24T13:49:55;10.25;;;6.45;;
59734;SDS011;64362;45.620;4.920;2023-07-24T13:52:20;8.10;;;6.88;;
59734;SDS011;64362;45.620;4.920;2023-07-24T13:54:46;12.73;;;6.70;;
59734;SDS011;64362;45.620;4.920;2023-07-24T13:57:12;8.98;;;6.60;;
59734;SDS011;64362;45.620;4.920;2023-07-24T13:59:38;11.18;;;6.88;;
59734;SDS011;64362;45.620;4.920;2023-07-24T14:02:04;11.38;;;7.60;;
59734;SDS011;64362;45.620;4.920;2023-07-24T14:04:30;10.88;;;6.82;;
59734;SDS011;64362;45.620;4.920;2023-07-24T14:06:55;12.57;;;7.13;;
59734;SDS011;64362;45.620;4.920;2023-07-24T14:09:21;11.57;;;6.68;;
59734;SDS011;64362;45.620;4.920;2023-07-24T14:11:47;11.43;;;7.35;;
59734;SDS011;64362;45.620;4.920;2023-07-24T14:14:12;10.35;;;7.32;;
59734;SDS011;64362;45.620;4.920;2023-07-24T14:16:38;9.02;;;6.38;;
59734;SDS011;64362;45.620;4.920;2023-07-24T14:19:03;9.65;;;6.88;;
59734;SDS011;64362;45.620;4.920;2023-07-24T14:21:28;10.13;;;6.65;;
59734;SDS011;64362;45.620;4.920;2023-07-24T14:23:54;9.13;;;6.80;;
59734;SDS011;64362;45.620;4.920;2023-07-24T14:26:19;10.90;;;7.70;;
59734;SDS011;64362;45.620;4.920;2023-07-24T14:28:45;12.18;;;7.55;;
59734;SDS011;64362;45.620;4.920;2023-07-24T14:31:10;11.00;;;7.60;;
59734;SDS011;64362;45.620;4.920;2023-07-24T14:33:36;11.68;;;7.55;;
59734;SDS011;64362;45.620;4.920;2023-07-24T14:36:01;10.52;;;7.32;;
59734;SDS011;64362;45.620;4.920;2023-07-24T14:38:27;13.80;;;7.07;;
59734;SDS011;64362;45.620;4.920;2023-07-24T14:40:52;12.77;;;7.97;;
59734;SDS011;64362;45.620;4.920;2023-07-24T14:43:18;11.63;;;6.78;;
59734;SDS011;64362;45.620;4.920;2023-07-24T14:45:43;9.60;;;6.78;;
59734;SDS011;64362;45.620;4.920;2023-07-24T14:48:09;11.95;;;7.07;;
59734;SDS011;64362;45.620;4.920;2023-07-24T14:50:35;9.98;;;7.15;;